sensor_id;sensor_type;location;lat;lon;timestamp;temperature;humidity
4081;DHT22;2055;50.074;8.436;2023-03-30T00:02:17;12.00;99.90
4081;DHT22;2055;50.074;8.436;2023-03-30T00:04:43;12.10;99.90
4081;DHT22;2055;50.074;8.436;2023-03-30T00:07:09;12.20;99.90
4081;DHT22;2055;50.074;8.436;2023-03-30T00:09:35;12.20;99.90
4081;DHT22;2055;50.074;8.436;2023-03-30T00:12:09;12.20;99.90
4081;DHT22;2055;50.074;8.436;2023-03-30T00:14:35;12.10;99.90
4081;DHT22;2055;50.074;8.436;2023-03-30T00:17:03;12.10;99.90
4081;DHT22;2055;50.074;8.436;2023-03-30T00:19:29;12.10;99.90
4081;DHT22;2055;50.074;8.436;2023-03-30T00:21:55;12.00;99.90
4081;DHT22;2055;50.074;8.436;2023-03-30T00:24:21;12.00;99.90
4081;DHT22;2055;50.074;8.436;2023-03-30T00:26:46;11.90;99.90
4081;DHT22;2055;50.074;8.436;2023-03-30T00:29:12;11.80;99.90
4081;DHT22;2055;50.074;8.436;2023-03-30T00:31:37;11.80;99.90
4081;DHT22;2055;50.074;8.436;2023-03-30T00:34:03;11.80;99.90
4081;DHT22;2055;50.074;8.436;2023-03-30T00:36:28;11.70;99.90
4081;DHT22;2055;50.074;8.436;2023-03-30T00:38:55;11.70;99.90
4081;DHT22;2055;50.074;8.436;2023-03-30T00:41:20;11.70;99.90
4081;DHT22;2055;50.074;8.436;2023-03-30T00:43:56;11.50;99.90
4081;DHT22;2055;50.074;8.436;2023-03-30T00:46:22;11.40;99.90
4081;DHT22;2055;50.074;8.436;2023-03-30T00:48:48;11.30;99.90
4081;DHT22;2055;50.074;8.436;2023-03-30T00:51:14;11.10;99.90
4081;DHT22;2055;50.074;8.436;2023-03-30T00:53:46;11.00;99.90
4081;DHT22;2055;50.074;8.436;2023-03-30T00:56:14;11.00;99.90
4081;DHT22;2055;50.074;8.436;2023-03-30T00:58:41;10.90;99.90
4081;DHT22;2055;50.074;8.436;2023-03-30T01:01:10;11.00;99.90
4081;DHT22;2055;50.074;8.436;2023-03-30T01:03:46;10.90;99.90
4081;DHT22;2055;50.074;8.436;2023-03-30T01:06:15;11.00;99.90
4081;DHT22;2055;50.074;8.436;2023-03-30T01:08:42;11.00;99.90
4081;DHT22;2055;50.074;8.436;2023-03-30T01:11:08;11.00;99.90
4081;DHT22;2055;50.074;8.436;2023-03-30T01:13:37;11.00;99.90
4081;DHT22;2055;50.074;8.436;2023-03-30T01:30:31;11.30;99.90
4081;DHT22;2055;50.074;8.436;2023-03-30T01:41:34;11.50;99.90
4081;DHT22;2055;50.074;8.436;2023-03-30T01:46:51;11.50;99.90
4081;DHT22;2055;50.074;8.436;2023-03-30T01:49:56;11.50;99.90
4081;DHT22;2055;50.074;8.436;2023-03-30T01:52:18;11.50;99.90
4081;DHT22;2055;50.074;8.436;2023-03-30T01:55:02;11.40;99.90
4081;DHT22;2055;50.074;8.436;2023-03-30T01:57:38;11.50;99.90
4081;DHT22;2055;50.074;8.436;2023-03-30T02:00:09;11.60;99.90
4081;DHT22;2055;50.074;8.436;2023-03-30T02:02:43;11.70;99.90
4081;DHT22;2055;50.074;8.436;2023-03-30T02:05:10;11.70;99.90
4081;DHT22;2055;50.074;8.436;2023-03-30T02:07:40;11.70;99.90
4081;DHT22;2055;50.074;8.436;2023-03-30T02:10:07;11.80;99.90
4081;DHT22;2055;50.074;8.436;2023-03-30T02:12:34;11.80;99.90
4081;DHT22;2055;50.074;8.436;2023-03-30T02:15:04;11.70;99.90
4081;DHT22;2055;50.074;8.436;2023-03-30T02:17:32;11.80;99.90
4081;DHT22;2055;50.074;8.436;2023-03-30T02:20:00;11.80;99.90
4081;DHT22;2055;50.074;8.436;2023-03-30T02:22:26;11.80;99.90
4081;DHT22;2055;50.074;8.436;2023-03-30T02:24:55;11.80;99.90
4081;DHT22;2055;50.074;8.436;2023-03-30T02:27:23;11.90;99.90
4081;DHT22;2055;50.074;8.436;2023-03-30T02:29:49;11.90;99.90
4081;DHT22;2055;50.074;8.436;2023-03-30T02:32:27;11.90;99.90
4081;DHT22;2055;50.074;8.436;2023-03-30T02:35:14;12.00;99.90
4081;DHT22;2055;50.074;8.436;2023-03-30T02:38:39;12.10;99.90
4081;DHT22;2055;50.074;8.436;2023-03-30T02:40:57;12.20;99.90
4081;DHT22;2055;50.074;8.436;2023-03-30T02:51:47;12.20;99.90
4081;DHT22;2055;50.074;8.436;2023-03-30T03:00:11;12.40;99.90
4081;DHT22;2055;50.074;8.436;2023-03-30T03:02:46;12.40;99.90
4081;DHT22;2055;50.074;8.436;2023-03-30T03:05:13;12.40;99.90
4081;DHT22;2055;50.074;8.436;2023-03-30T03:07:39;12.50;99.90
4081;DHT22;2055;50.074;8.436;2023-03-30T03:10:06;12.60;99.90
4081;DHT22;2055;50.074;8.436;2023-03-30T03:12:32;12.70;99.90
4081;DHT22;2055;50.074;8.436;2023-03-30T03:14:58;12.70;99.90
4081;DHT22;2055;50.074;8.436;2023-03-30T03:17:26;12.80;99.90
4081;DHT22;2055;50.074;8.436;2023-03-30T03:20:00;12.90;99.90
4081;DHT22;2055;50.074;8.436;2023-03-30T03:22:26;12.80;99.90
4081;DHT22;2055;50.074;8.436;2023-03-30T03:24:52;12.80;99.90
4081;DHT22;2055;50.074;8.436;2023-03-30T03:27:17;12.40;99.90
4081;DHT22;2055;50.074;8.436;2023-03-30T03:29:43;12.70;99.90
4081;DHT22;2055;50.074;8.436;2023-03-30T03:32:08;12.70;99.90
4081;DHT22;2055;50.074;8.436;2023-03-30T03:34:34;12.70;99.90
4081;DHT22;2055;50.074;8.436;2023-03-30T03:37:00;12.70;99.90
4081;DHT22;2055;50.074;8.436;2023-03-30T03:39:25;12.70;99.90
4081;DHT22;2055;50.074;8.436;2023-03-30T03:41:51;12.60;99.90
4081;DHT22;2055;50.074;8.436;2023-03-30T03:44:17;12.50;99.90
4081;DHT22;2055;50.074;8.436;2023-03-30T03:46:42;12.40;99.90
4081;DHT22;2055;50.074;8.436;2023-03-30T03:49:07;12.40;99.90
4081;DHT22;2055;50.074;8.436;2023-03-30T03:51:34;12.30;99.90
4081;DHT22;2055;50.074;8.436;2023-03-30T03:54:00;12.30;99.90
4081;DHT22;2055;50.074;8.436;2023-03-30T03:56:26;12.20;99.90
4081;DHT22;2055;50.074;8.436;2023-03-30T03:58:52;12.00;99.90
4081;DHT22;2055;50.074;8.436;2023-03-30T04:01:18;11.90;99.90
4081;DHT22;2055;50.074;8.436;2023-03-30T04:03:44;11.80;99.90
4081;DHT22;2055;50.074;8.436;2023-03-30T04:06:10;11.70;99.90
4081;DHT22;2055;50.074;8.436;2023-03-30T04:08:36;11.70;99.90
4081;DHT22;2055;50.074;8.436;2023-03-30T04:11:06;11.80;99.90
4081;DHT22;2055;50.074;8.436;2023-03-30T04:13:33;11.90;99.90
4081;DHT22;2055;50.074;8.436;2023-03-30T04:15:59;12.00;99.90
4081;DHT22;2055;50.074;8.436;2023-03-30T04:18:25;12.00;99.90
4081;DHT22;2055;50.074;8.436;2023-03-30T04:20:58;12.10;99.90
4081;DHT22;2055;50.074;8.436;2023-03-30T04:23:30;12.00;99.90
4081;DHT22;2055;50.074;8.436;2023-03-30T04:26:13;12.00;99.90
4081;DHT22;2055;50.074;8.436;2023-03-30T04:28:40;12.00;99.90
4081;DHT22;2055;50.074;8.436;2023-03-30T04:31:06;12.10;99.90
4081;DHT22;2055;50.074;8.436;2023-03-30T04:33:39;12.10;99.90
4081;DHT22;2055;50.074;8.436;2023-03-30T04:36:15;12.10;99.90
4081;DHT22;2055;50.074;8.436;2023-03-30T04:38:44;12.20;99.90
4081;DHT22;2055;50.074;8.436;2023-03-30T04:41:10;12.20;99.90
4081;DHT22;2055;50.074;8.436;2023-03-30T04:43:38;12.30;99.90
4081;DHT22;2055;50.074;8.436;2023-03-30T04:46:04;12.20;99.90
4081;DHT22;2055;50.074;8.436;2023-03-30T04:48:30;12.20;99.90
4081;DHT22;2055;50.074;8.436;2023-03-30T04:50:56;12.30;99.90
4081;DHT22;2055;50.074;8.436;2023-03-30T04:53:22;12.30;99.90
4081;DHT22;2055;50.074;8.436;2023-03-30T04:55:49;12.40;99.90
4081;DHT22;2055;50.074;8.436;2023-03-30T04:58:15;12.40;99.90
4081;DHT22;2055;50.074;8.436;2023-03-30T05:00:41;12.40;99.90
4081;DHT22;2055;50.074;8.436;2023-03-30T05:03:07;12.50;99.90
4081;DHT22;2055;50.074;8.436;2023-03-30T05:05:32;12.40;99.90
4081;DHT22;2055;50.074;8.436;2023-03-30T05:07:59;12.40;99.90
4081;DHT22;2055;50.074;8.436;2023-03-30T05:10:25;12.40;99.90
4081;DHT22;2055;50.074;8.436;2023-03-30T05:12:54;12.30;99.90
4081;DHT22;2055;50.074;8.436;2023-03-30T05:15:20;12.10;99.90
4081;DHT22;2055;50.074;8.436;2023-03-30T05:17:46;12.00;99.90
4081;DHT22;2055;50.074;8.436;2023-03-30T05:20:11;11.80;99.90
4081;DHT22;2055;50.074;8.436;2023-03-30T05:22:37;11.70;99.90
4081;DHT22;2055;50.074;8.436;2023-03-30T05:25:04;11.50;99.90
4081;DHT22;2055;50.074;8.436;2023-03-30T05:27:29;13.80;99.90
4081;DHT22;2055;50.074;8.436;2023-03-30T05:29:55;11.40;99.90
4081;DHT22;2055;50.074;8.436;2023-03-30T05:32:21;11.30;99.90
4081;DHT22;2055;50.074;8.436;2023-03-30T05:34:46;11.20;99.90
4081;DHT22;2055;50.074;8.436;2023-03-30T05:37:12;11.20;99.90
4081;DHT22;2055;50.074;8.436;2023-03-30T05:39:38;11.10;99.90
4081;DHT22;2055;50.074;8.436;2023-03-30T05:42:04;11.00;99.90
4081;DHT22;2055;50.074;8.436;2023-03-30T05:44:30;11.00;99.90
4081;DHT22;2055;50.074;8.436;2023-03-30T05:46:55;10.90;99.90
4081;DHT22;2055;50.074;8.436;2023-03-30T05:49:21;10.90;99.90
4081;DHT22;2055;50.074;8.436;2023-03-30T05:51:47;10.80;99.90
4081;DHT22;2055;50.074;8.436;2023-03-30T05:54:13;10.80;99.90
4081;DHT22;2055;50.074;8.436;2023-03-30T05:56:39;10.80;99.90
4081;DHT22;2055;50.074;8.436;2023-03-30T05:59:07;10.80;99.90
4081;DHT22;2055;50.074;8.436;2023-03-30T06:01:33;10.80;99.90
4081;DHT22;2055;50.074;8.436;2023-03-30T06:03:59;10.70;99.90
4081;DHT22;2055;50.074;8.436;2023-03-30T06:06:25;10.70;99.90
4081;DHT22;2055;50.074;8.436;2023-03-30T06:08:51;10.70;99.90
4081;DHT22;2055;50.074;8.436;2023-03-30T06:11:17;10.70;99.90
4081;DHT22;2055;50.074;8.436;2023-03-30T06:13:43;10.70;99.90
4081;DHT22;2055;50.074;8.436;2023-03-30T06:16:09;10.70;99.90
4081;DHT22;2055;50.074;8.436;2023-03-30T06:18:35;10.70;99.90
4081;DHT22;2055;50.074;8.436;2023-03-30T06:21:00;10.80;99.90
4081;DHT22;2055;50.074;8.436;2023-03-30T06:23:27;10.80;99.90
4081;DHT22;2055;50.074;8.436;2023-03-30T06:25:53;10.80;99.90
4081;DHT22;2055;50.074;8.436;2023-03-30T06:28:20;10.90;99.90
4081;DHT22;2055;50.074;8.436;2023-03-30T06:30:46;11.00;99.90
4081;DHT22;2055;50.074;8.436;2023-03-30T06:33:16;11.00;99.90
4081;DHT22;2055;50.074;8.436;2023-03-30T06:35:46;11.00;99.90
4081;DHT22;2055;50.074;8.436;2023-03-30T06:38:13;11.10;99.90
4081;DHT22;2055;50.074;8.436;2023-03-30T06:40:38;11.10;99.90
4081;DHT22;2055;50.074;8.436;2023-03-30T06:43:04;11.20;99.90
4081;DHT22;2055;50.074;8.436;2023-03-30T06:45:30;11.10;99.90
4081;DHT22;2055;50.074;8.436;2023-03-30T06:47:55;11.20;99.90
4081;DHT22;2055;50.074;8.436;2023-03-30T06:50:21;11.30;99.90
4081;DHT22;2055;50.074;8.436;2023-03-30T06:52:46;11.30;99.90
4081;DHT22;2055;50.074;8.436;2023-03-30T06:55:13;11.40;99.90
4081;DHT22;2055;50.074;8.436;2023-03-30T06:57:38;11.40;99.90
4081;DHT22;2055;50.074;8.436;2023-03-30T07:00:05;11.50;99.90
4081;DHT22;2055;50.074;8.436;2023-03-30T07:02:35;11.50;99.90
4081;DHT22;2055;50.074;8.436;2023-03-30T07:05:01;11.60;99.90
4081;DHT22;2055;50.074;8.436;2023-03-30T07:07:26;11.70;99.90
4081;DHT22;2055;50.074;8.436;2023-03-30T07:09:52;11.80;99.90
4081;DHT22;2055;50.074;8.436;2023-03-30T07:12:17;12.00;99.90
4081;DHT22;2055;50.074;8.436;2023-03-30T07:14:43;12.10;99.90
4081;DHT22;2055;50.074;8.436;2023-03-30T07:17:09;12.20;99.90
4081;DHT22;2055;50.074;8.436;2023-03-30T07:19:34;12.30;99.90
4081;DHT22;2055;50.074;8.436;2023-03-30T07:22:01;14.10;99.90
4081;DHT22;2055;50.074;8.436;2023-03-30T07:24:26;12.40;99.90
4081;DHT22;2055;50.074;8.436;2023-03-30T07:26:54;12.40;99.90
4081;DHT22;2055;50.074;8.436;2023-03-30T07:29:20;12.40;99.90
4081;DHT22;2055;50.074;8.436;2023-03-30T07:31:45;12.40;99.90
4081;DHT22;2055;50.074;8.436;2023-03-30T07:34:11;12.40;99.90
4081;DHT22;2055;50.074;8.436;2023-03-30T07:36:36;12.50;99.90
4081;DHT22;2055;50.074;8.436;2023-03-30T07:39:02;12.50;99.90
4081;DHT22;2055;50.074;8.436;2023-03-30T07:41:28;12.60;99.90
4081;DHT22;2055;50.074;8.436;2023-03-30T07:43:53;12.60;99.90
4081;DHT22;2055;50.074;8.436;2023-03-30T07:46:19;12.70;99.90
4081;DHT22;2055;50.074;8.436;2023-03-30T07:48:45;12.80;99.90
4081;DHT22;2055;50.074;8.436;2023-03-30T07:51:12;12.80;99.90
4081;DHT22;2055;50.074;8.436;2023-03-30T07:53:38;12.80;99.90
4081;DHT22;2055;50.074;8.436;2023-03-30T07:56:04;12.80;99.90
4081;DHT22;2055;50.074;8.436;2023-03-30T07:58:30;12.70;99.90
4081;DHT22;2055;50.074;8.436;2023-03-30T08:00:56;12.70;99.90
4081;DHT22;2055;50.074;8.436;2023-03-30T08:03:22;15.70;99.90
4081;DHT22;2055;50.074;8.436;2023-03-30T08:05:55;12.60;99.90
4081;DHT22;2055;50.074;8.436;2023-03-30T08:08:21;12.60;99.90
4081;DHT22;2055;50.074;8.436;2023-03-30T08:10:47;12.60;99.90
4081;DHT22;2055;50.074;8.436;2023-03-30T08:13:13;12.60;99.90
4081;DHT22;2055;50.074;8.436;2023-03-30T08:15:39;12.70;99.90
4081;DHT22;2055;50.074;8.436;2023-03-30T08:18:04;12.80;99.90
4081;DHT22;2055;50.074;8.436;2023-03-30T08:20:36;13.10;99.90
4081;DHT22;2055;50.074;8.436;2023-03-30T08:23:03;13.00;99.90
4081;DHT22;2055;50.074;8.436;2023-03-30T08:25:29;13.20;99.90
4081;DHT22;2055;50.074;8.436;2023-03-30T08:27:55;13.30;99.90
4081;DHT22;2055;50.074;8.436;2023-03-30T08:30:21;13.40;99.90
4081;DHT22;2055;50.074;8.436;2023-03-30T08:32:46;13.60;99.90
4081;DHT22;2055;50.074;8.436;2023-03-30T08:35:12;13.70;99.90
4081;DHT22;2055;50.074;8.436;2023-03-30T08:37:38;13.90;99.90
4081;DHT22;2055;50.074;8.436;2023-03-30T08:40:04;14.10;99.90
4081;DHT22;2055;50.074;8.436;2023-03-30T08:42:56;14.20;99.90
4081;DHT22;2055;50.074;8.436;2023-03-30T08:45:24;14.60;99.90
4081;DHT22;2055;50.074;8.436;2023-03-30T08:47:51;14.60;99.90
4081;DHT22;2055;50.074;8.436;2023-03-30T08:53:13;14.50;99.90
4081;DHT22;2055;50.074;8.436;2023-03-30T08:55:44;14.50;99.90
4081;DHT22;2055;50.074;8.436;2023-03-30T08:58:52;14.50;99.90
4081;DHT22;2055;50.074;8.436;2023-03-30T09:07:06;14.30;99.90
4081;DHT22;2055;50.074;8.436;2023-03-30T09:09:40;14.30;99.90
4081;DHT22;2055;50.074;8.436;2023-03-30T09:12:35;14.20;99.90
4081;DHT22;2055;50.074;8.436;2023-03-30T09:17:46;14.10;99.90
4081;DHT22;2055;50.074;8.436;2023-03-30T09:20:20;14.00;99.90
4081;DHT22;2055;50.074;8.436;2023-03-30T09:22:47;14.00;99.90
4081;DHT22;2055;50.074;8.436;2023-03-30T09:27:57;13.90;99.90
4081;DHT22;2055;50.074;8.436;2023-03-30T09:30:39;13.80;99.90
4081;DHT22;2055;50.074;8.436;2023-03-30T09:38:46;14.00;99.90
4081;DHT22;2055;50.074;8.436;2023-03-30T09:41:15;14.00;99.90
4081;DHT22;2055;50.074;8.436;2023-03-30T09:43:44;14.00;99.90
4081;DHT22;2055;50.074;8.436;2023-03-30T09:46:11;14.00;99.90
4081;DHT22;2055;50.074;8.436;2023-03-30T09:48:48;14.10;99.90
4081;DHT22;2055;50.074;8.436;2023-03-30T09:51:16;14.30;99.90
4081;DHT22;2055;50.074;8.436;2023-03-30T09:53:44;14.30;99.90
4081;DHT22;2055;50.074;8.436;2023-03-30T09:56:26;14.40;99.90
4081;DHT22;2055;50.074;8.436;2023-03-30T09:58:52;14.40;99.90
4081;DHT22;2055;50.074;8.436;2023-03-30T10:01:19;14.60;99.90
4081;DHT22;2055;50.074;8.436;2023-03-30T10:04:03;14.70;99.90
4081;DHT22;2055;50.074;8.436;2023-03-30T10:06:29;14.70;99.90
4081;DHT22;2055;50.074;8.436;2023-03-30T10:08:56;14.60;99.90
4081;DHT22;2055;50.074;8.436;2023-03-30T10:11:43;14.60;99.90
4081;DHT22;2055;50.074;8.436;2023-03-30T10:16:54;14.90;99.90
4081;DHT22;2055;50.074;8.436;2023-03-30T10:19:20;15.00;99.90
4081;DHT22;2055;50.074;8.436;2023-03-30T10:21:47;16.00;99.90
4081;DHT22;2055;50.074;8.436;2023-03-30T10:24:27;15.80;99.90
4081;DHT22;2055;50.074;8.436;2023-03-30T10:27:12;16.30;99.90
4081;DHT22;2055;50.074;8.436;2023-03-30T10:29:46;17.60;99.90
4081;DHT22;2055;50.074;8.436;2023-03-30T10:32:18;17.00;99.90
4081;DHT22;2055;50.074;8.436;2023-03-30T10:34:49;16.60;99.90
4081;DHT22;2055;50.074;8.436;2023-03-30T10:37:29;16.50;99.90
4081;DHT22;2055;50.074;8.436;2023-03-30T10:39:57;16.50;99.90
4081;DHT22;2055;50.074;8.436;2023-03-30T10:42:25;16.20;99.90
4081;DHT22;2055;50.074;8.436;2023-03-30T10:44:58;16.10;99.90
4081;DHT22;2055;50.074;8.436;2023-03-30T10:47:56;15.90;99.90
4081;DHT22;2055;50.074;8.436;2023-03-30T10:50:38;16.00;99.90
4081;DHT22;2055;50.074;8.436;2023-03-30T10:58:59;16.50;99.90
4081;DHT22;2055;50.074;8.436;2023-03-30T11:04:10;15.90;99.90
4081;DHT22;2055;50.074;8.436;2023-03-30T11:06:42;16.10;99.90
4081;DHT22;2055;50.074;8.436;2023-03-30T11:09:13;17.20;99.90
4081;DHT22;2055;50.074;8.436;2023-03-30T11:14:24;16.80;99.90
4081;DHT22;2055;50.074;8.436;2023-03-30T11:17:04;16.60;99.90
4081;DHT22;2055;50.074;8.436;2023-03-30T11:19:45;16.30;99.90
4081;DHT22;2055;50.074;8.436;2023-03-30T11:22:37;16.60;99.90
4081;DHT22;2055;50.074;8.436;2023-03-30T11:25:21;16.30;99.90
4081;DHT22;2055;50.074;8.436;2023-03-30T11:27:54;16.00;99.90
4081;DHT22;2055;50.074;8.436;2023-03-30T11:30:27;15.90;99.90
4081;DHT22;2055;50.074;8.436;2023-03-30T11:33:21;15.70;99.90
4081;DHT22;2055;50.074;8.436;2023-03-30T11:35:56;15.60;99.90
4081;DHT22;2055;50.074;8.436;2023-03-30T11:38:43;15.80;99.90
4081;DHT22;2055;50.074;8.436;2023-03-30T11:41:14;15.80;99.90
4081;DHT22;2055;50.074;8.436;2023-03-30T11:43:40;16.20;99.90
4081;DHT22;2055;50.074;8.436;2023-03-30T11:46:20;17.70;99.90
4081;DHT22;2055;50.074;8.436;2023-03-30T11:54:56;17.30;99.90
4081;DHT22;2055;50.074;8.436;2023-03-30T11:57:45;17.00;99.90
4081;DHT22;2055;50.074;8.436;2023-03-30T12:01:24;16.60;99.90
4081;DHT22;2055;50.074;8.436;2023-03-30T12:03:46;16.50;99.90
4081;DHT22;2055;50.074;8.436;2023-03-30T12:06:33;16.50;99.90
4081;DHT22;2055;50.074;8.436;2023-03-30T12:11:55;16.60;99.90
4081;DHT22;2055;50.074;8.436;2023-03-30T12:19:56;17.60;99.90
4081;DHT22;2055;50.074;8.436;2023-03-30T12:25:27;17.80;99.90
4081;DHT22;2055;50.074;8.436;2023-03-30T12:30:26;18.40;99.90
4081;DHT22;2055;50.074;8.436;2023-03-30T12:33:01;19.20;99.90
4081;DHT22;2055;50.074;8.436;2023-03-30T12:38:15;17.90;99.90
4081;DHT22;2055;50.074;8.436;2023-03-30T12:40:45;17.50;99.90
4081;DHT22;2055;50.074;8.436;2023-03-30T12:43:38;17.20;99.90
4081;DHT22;2055;50.074;8.436;2023-03-30T12:46:10;16.70;99.90
4081;DHT22;2055;50.074;8.436;2023-03-30T13:05:44;12.80;99.90
4081;DHT22;2055;50.074;8.436;2023-03-30T13:08:36;13.40;99.90
4081;DHT22;2055;50.074;8.436;2023-03-30T13:11:17;14.50;99.90
4081;DHT22;2055;50.074;8.436;2023-03-30T13:16:10;15.90;99.90
4081;DHT22;2055;50.074;8.436;2023-03-30T13:18:51;15.30;99.90
4081;DHT22;2055;50.074;8.436;2023-03-30T13:21:23;14.80;99.90
4081;DHT22;2055;50.074;8.436;2023-03-30T13:24:18;14.40;99.90
4081;DHT22;2055;50.074;8.436;2023-03-30T13:26:45;14.30;99.90
4081;DHT22;2055;50.074;8.436;2023-03-30T13:29:13;13.80;99.90
4081;DHT22;2055;50.074;8.436;2023-03-30T13:32:01;13.60;99.90
4081;DHT22;2055;50.074;8.436;2023-03-30T13:34:42;13.40;99.90
4081;DHT22;2055;50.074;8.436;2023-03-30T13:37:22;13.30;99.90
4081;DHT22;2055;50.074;8.436;2023-03-30T13:40:02;13.30;99.90
4081;DHT22;2055;50.074;8.436;2023-03-30T13:42:48;13.50;99.90
4081;DHT22;2055;50.074;8.436;2023-03-30T13:50:35;15.60;99.90
4081;DHT22;2055;50.074;8.436;2023-03-30T13:53:03;15.30;99.90
4081;DHT22;2055;50.074;8.436;2023-03-30T13:55:46;15.30;99.90
4081;DHT22;2055;50.074;8.436;2023-03-30T13:58:29;14.90;99.90
4081;DHT22;2055;50.074;8.436;2023-03-30T14:01:09;15.00;99.90
4081;DHT22;2055;50.074;8.436;2023-03-30T14:03:40;15.70;99.90
4081;DHT22;2055;50.074;8.436;2023-03-30T14:08:40;15.60;99.90
4081;DHT22;2055;50.074;8.436;2023-03-30T14:11:21;15.30;99.90
4081;DHT22;2055;50.074;8.436;2023-03-30T14:13:49;15.00;99.90
4081;DHT22;2055;50.074;8.436;2023-03-30T14:16:19;14.60;99.90
4081;DHT22;2055;50.074;8.436;2023-03-30T14:18:46;14.30;99.90
4081;DHT22;2055;50.074;8.436;2023-03-30T14:21:20;14.00;99.90
4081;DHT22;2055;50.074;8.436;2023-03-30T14:23:51;13.70;99.90
4081;DHT22;2055;50.074;8.436;2023-03-30T14:26:25;13.20;99.90
4081;DHT22;2055;50.074;8.436;2023-03-30T14:28:56;12.70;99.90
4081;DHT22;2055;50.074;8.436;2023-03-30T14:31:22;12.40;99.90
4081;DHT22;2055;50.074;8.436;2023-03-30T14:33:48;12.20;99.90
4081;DHT22;2055;50.074;8.436;2023-03-30T14:36:18;12.10;99.90
4081;DHT22;2055;50.074;8.436;2023-03-30T14:38:50;12.10;99.90
4081;DHT22;2055;50.074;8.436;2023-03-30T14:41:22;12.10;99.90
4081;DHT22;2055;50.074;8.436;2023-03-30T14:44:02;12.10;99.90
4081;DHT22;2055;50.074;8.436;2023-03-30T14:46:40;12.10;99.90
4081;DHT22;2055;50.074;8.436;2023-03-30T14:49:10;12.10;99.90
4081;DHT22;2055;50.074;8.436;2023-03-30T14:51:44;12.00;99.90
4081;DHT22;2055;50.074;8.436;2023-03-30T14:54:19;12.00;99.90
4081;DHT22;2055;50.074;8.436;2023-03-30T14:56:54;12.00;99.90
4081;DHT22;2055;50.074;8.436;2023-03-30T14:59:22;12.00;99.90
4081;DHT22;2055;50.074;8.436;2023-03-30T15:01:48;12.20;99.90
4081;DHT22;2055;50.074;8.436;2023-03-30T15:04:14;12.70;99.90
4081;DHT22;2055;50.074;8.436;2023-03-30T15:06:41;13.90;99.90
4081;DHT22;2055;50.074;8.436;2023-03-30T15:09:15;15.20;99.90
4081;DHT22;2055;50.074;8.436;2023-03-30T15:11:43;16.70;99.90
4081;DHT22;2055;50.074;8.436;2023-03-30T15:14:13;16.70;99.90
4081;DHT22;2055;50.074;8.436;2023-03-30T15:16:40;17.70;99.90
4081;DHT22;2055;50.074;8.436;2023-03-30T15:19:10;17.60;99.90
4081;DHT22;2055;50.074;8.436;2023-03-30T15:21:37;16.30;99.90
4081;DHT22;2055;50.074;8.436;2023-03-30T15:24:08;15.60;99.90
4081;DHT22;2055;50.074;8.436;2023-03-30T15:26:43;15.90;99.90
4081;DHT22;2055;50.074;8.436;2023-03-30T15:29:10;16.20;99.90
4081;DHT22;2055;50.074;8.436;2023-03-30T15:31:36;16.90;99.90
4081;DHT22;2055;50.074;8.436;2023-03-30T15:34:01;16.00;99.90
4081;DHT22;2055;50.074;8.436;2023-03-30T15:36:38;14.90;99.90
4081;DHT22;2055;50.074;8.436;2023-03-30T15:44:20;13.50;99.90
4081;DHT22;2055;50.074;8.436;2023-03-30T15:46:48;13.40;99.90
4081;DHT22;2055;50.074;8.436;2023-03-30T15:49:17;13.40;99.90
4081;DHT22;2055;50.074;8.436;2023-03-30T15:51:49;13.50;99.90
4081;DHT22;2055;50.074;8.436;2023-03-30T15:54:20;13.30;99.90
4081;DHT22;2055;50.074;8.436;2023-03-30T15:59:14;14.30;99.90
4081;DHT22;2055;50.074;8.436;2023-03-30T16:04:16;15.90;99.90
4081;DHT22;2055;50.074;8.436;2023-03-30T16:06:42;16.30;99.90
4081;DHT22;2055;50.074;8.436;2023-03-30T16:09:07;16.40;99.90
4081;DHT22;2055;50.074;8.436;2023-03-30T16:11:33;15.50;99.90
4081;DHT22;2055;50.074;8.436;2023-03-30T16:13:59;14.50;99.90
4081;DHT22;2055;50.074;8.436;2023-03-30T16:16:25;13.80;99.90
4081;DHT22;2055;50.074;8.436;2023-03-30T16:18:51;13.50;99.90
4081;DHT22;2055;50.074;8.436;2023-03-30T16:21:16;13.30;99.90
4081;DHT22;2055;50.074;8.436;2023-03-30T16:23:43;13.20;99.90
4081;DHT22;2055;50.074;8.436;2023-03-30T16:26:12;13.30;99.90
4081;DHT22;2055;50.074;8.436;2023-03-30T16:28:38;13.50;99.90
4081;DHT22;2055;50.074;8.436;2023-03-30T16:31:15;13.30;99.90
4081;DHT22;2055;50.074;8.436;2023-03-30T16:33:42;13.20;99.90
4081;DHT22;2055;50.074;8.436;2023-03-30T16:36:16;13.20;99.90
4081;DHT22;2055;50.074;8.436;2023-03-30T16:38:42;13.10;99.90
4081;DHT22;2055;50.074;8.436;2023-03-30T16:41:11;13.00;99.90
4081;DHT22;2055;50.074;8.436;2023-03-30T16:43:38;13.00;99.90
4081;DHT22;2055;50.074;8.436;2023-03-30T16:46:03;13.00;99.90
4081;DHT22;2055;50.074;8.436;2023-03-30T16:48:29;13.00;99.90
4081;DHT22;2055;50.074;8.436;2023-03-30T16:50:55;13.10;99.90
4081;DHT22;2055;50.074;8.436;2023-03-30T16:53:23;13.20;99.90
4081;DHT22;2055;50.074;8.436;2023-03-30T16:55:49;13.10;99.90
4081;DHT22;2055;50.074;8.436;2023-03-30T16:58:14;13.10;99.90
4081;DHT22;2055;50.074;8.436;2023-03-30T17:00:46;12.90;99.90
4081;DHT22;2055;50.074;8.436;2023-03-30T17:03:11;12.80;99.90
4081;DHT22;2055;50.074;8.436;2023-03-30T17:05:38;12.80;99.90
4081;DHT22;2055;50.074;8.436;2023-03-30T17:10:47;12.50;99.90
4081;DHT22;2055;50.074;8.436;2023-03-30T17:13:13;12.60;99.90
4081;DHT22;2055;50.074;8.436;2023-03-30T17:15:38;12.30;99.90
4081;DHT22;2055;50.074;8.436;2023-03-30T17:18:06;12.30;99.90
4081;DHT22;2055;50.074;8.436;2023-03-30T17:20:39;12.20;99.90
4081;DHT22;2055;50.074;8.436;2023-03-30T17:23:05;12.20;99.90
4081;DHT22;2055;50.074;8.436;2023-03-30T17:25:34;12.10;99.90
4081;DHT22;2055;50.074;8.436;2023-03-30T17:28:01;12.10;99.90
4081;DHT22;2055;50.074;8.436;2023-03-30T17:30:34;12.00;99.90
4081;DHT22;2055;50.074;8.436;2023-03-30T17:33:00;12.00;99.90
4081;DHT22;2055;50.074;8.436;2023-03-30T17:35:26;12.00;99.90
4081;DHT22;2055;50.074;8.436;2023-03-30T17:37:53;12.00;99.90
4081;DHT22;2055;50.074;8.436;2023-03-30T17:40:29;11.90;99.90
4081;DHT22;2055;50.074;8.436;2023-03-30T17:42:55;12.00;99.90
4081;DHT22;2055;50.074;8.436;2023-03-30T17:45:24;11.90;99.90
4081;DHT22;2055;50.074;8.436;2023-03-30T17:47:50;11.80;99.90
4081;DHT22;2055;50.074;8.436;2023-03-30T17:50:26;11.70;99.90
4081;DHT22;2055;50.074;8.436;2023-03-30T17:52:53;11.60;99.90
4081;DHT22;2055;50.074;8.436;2023-03-30T17:55:21;11.60;99.90
4081;DHT22;2055;50.074;8.436;2023-03-30T17:57:47;11.40;99.90
4081;DHT22;2055;50.074;8.436;2023-03-30T18:00:26;11.30;99.90
4081;DHT22;2055;50.074;8.436;2023-03-30T18:02:53;11.30;99.90
4081;DHT22;2055;50.074;8.436;2023-03-30T18:05:21;11.20;99.90
4081;DHT22;2055;50.074;8.436;2023-03-30T18:07:47;11.20;99.90
4081;DHT22;2055;50.074;8.436;2023-03-30T18:12:44;11.20;99.90
4081;DHT22;2055;50.074;8.436;2023-03-30T18:15:10;11.10;99.90
4081;DHT22;2055;50.074;8.436;2023-03-30T18:17:35;11.00;99.90
4081;DHT22;2055;50.074;8.436;2023-03-30T18:20:08;11.00;99.90
4081;DHT22;2055;50.074;8.436;2023-03-30T18:22:37;11.00;99.90
4081;DHT22;2055;50.074;8.436;2023-03-30T18:25:02;11.40;99.90
4081;DHT22;2055;50.074;8.436;2023-03-30T18:27:31;11.20;99.90
4081;DHT22;2055;50.074;8.436;2023-03-30T18:29:58;11.20;99.90
4081;DHT22;2055;50.074;8.436;2023-03-30T18:32:23;11.20;99.90
4081;DHT22;2055;50.074;8.436;2023-03-30T18:34:49;11.20;99.90
4081;DHT22;2055;50.074;8.436;2023-03-30T18:37:15;11.20;99.90
4081;DHT22;2055;50.074;8.436;2023-03-30T18:39:42;11.10;99.90